createdAt,value
2019-01-09T00:03:50.863Z,0.95
2019-01-09T00:06:39.356Z,0.92
2019-01-09T00:09:09.063Z,0.93
2019-01-09T00:11:38.604Z,0.93
2019-01-09T00:14:10.846Z,0.90
2019-01-09T00:16:40.323Z,0.90
2019-01-09T00:19:19.127Z,0.83
2019-01-09T00:22:08.127Z,0.76
2019-01-09T00:24:49.474Z,0.79
2019-01-09T00:27:18.937Z,0.79
2019-01-09T00:30:07.720Z,0.83
2019-01-09T00:32:48.726Z,0.78
2019-01-09T00:35:18.329Z,0.78
2019-01-09T00:37:47.860Z,0.81
2019-01-09T00:40:36.588Z,0.81
2019-01-09T00:43:06.401Z,0.81
2019-01-09T00:45:35.801Z,0.83
2019-01-09T00:48:05.464Z,0.82
2019-01-09T00:50:34.976Z,0.80
2019-01-09T00:53:04.508Z,0.77
2019-01-09T00:55:53.173Z,0.77
2019-01-09T00:58:34.305Z,0.73
2019-01-09T01:01:03.866Z,0.72
2019-01-09T01:04:11.295Z,0.72
2019-01-09T01:07:18.759Z,0.65
2019-01-09T01:10:26.433Z,0.65
2019-01-09T01:13:33.846Z,0.63
2019-01-09T01:16:33.797Z,0.67
2019-01-09T01:19:35.361Z,0.67
2019-01-09T01:22:43.005Z,0.70
2019-01-09T01:25:24.618Z,0.69
2019-01-09T01:28:32.275Z,0.71
2019-01-09T01:31:12.958Z,0.68
2019-01-09T01:34:19.606Z,0.64
2019-01-09T01:37:21.217Z,0.61
2019-01-09T01:43:28.709Z,0.64
2019-01-09T01:46:36.660Z,0.62
2019-01-09T01:49:44.442Z,0.69
2019-01-09T01:52:25.162Z,0.66
2019-01-09T01:55:36.352Z,0.66
2019-01-09T01:58:43.847Z,0.66
2019-01-09T02:01:39.322Z,0.67
2019-01-09T02:04:20.243Z,0.65
2019-01-09T02:07:31.752Z,0.64
2019-01-09T02:10:12.240Z,0.63
2019-01-09T02:13:21.402Z,0.57
2019-01-09T02:16:22.890Z,0.57
2019-01-09T02:19:15.815Z,0.61
2019-01-09T02:22:23.342Z,0.60
2019-01-09T02:25:14.427Z,0.60
2019-01-09T02:28:07.815Z,0.64
2019-01-09T02:31:15.249Z,0.64
2019-01-09T02:33:45.223Z,0.64
2019-01-09T02:39:10.505Z,0.64
2019-01-09T02:41:40.057Z,0.71
2019-01-09T02:44:09.800Z,0.73
2019-01-09T02:46:39.602Z,0.72
2019-01-09T02:49:09.329Z,0.71
2019-01-09T02:51:39.042Z,0.77
2019-01-09T02:54:08.959Z,0.77
2019-01-09T02:56:38.430Z,0.77
2019-01-09T02:59:27.055Z,0.80
2019-01-09T03:04:52.340Z,0.74
2019-01-09T03:07:40.889Z,0.83
2019-01-09T03:10:10.580Z,0.81
2019-01-09T03:12:59.153Z,0.78
2019-01-09T03:15:47.619Z,0.76
2019-01-09T03:18:28.385Z,0.72
2019-01-09T03:20:58.475Z,0.72
2019-01-09T03:23:28.412Z,0.78
2019-01-09T03:25:57.960Z,0.78
2019-01-09T03:28:46.424Z,0.76
2019-01-09T03:31:16.025Z,0.76
2019-01-09T03:34:05.101Z,0.84
2019-01-09T03:36:46.400Z,0.85
2019-01-09T03:39:18.978Z,0.84
2019-01-09T03:41:48.505Z,0.84
2019-01-09T03:44:37.018Z,0.77
2019-01-09T03:47:06.877Z,0.77
2019-01-09T03:49:36.309Z,0.80
2019-01-09T03:52:05.848Z,0.74
2019-01-09T03:54:35.423Z,0.72
2019-01-09T03:57:04.880Z,0.75
2019-01-09T04:02:09.987Z,0.74
2019-01-09T04:04:50.483Z,0.74
2019-01-09T04:07:31.007Z,0.71
2019-01-09T04:10:06.936Z,0.71
2019-01-09T04:12:36.394Z,0.73
2019-01-09T04:15:07.072Z,0.78
2019-01-09T04:17:55.541Z,0.75
2019-01-09T04:20:25.085Z,0.71
2019-01-09T04:23:01.805Z,0.71
2019-01-09T04:25:31.318Z,0.71
2019-01-09T04:28:00.814Z,0.63
2019-01-09T04:30:49.242Z,0.66
2019-01-09T04:33:18.679Z,0.74
2019-01-09T04:35:48.077Z,0.70
2019-01-09T04:38:17.571Z,0.77
2019-01-09T04:40:59.266Z,0.76
2019-01-09T04:43:40.088Z,0.76
2019-01-09T04:46:10.885Z,0.67
2019-01-09T04:48:40.494Z,0.67
2019-01-09T04:51:10.432Z,0.68
2019-01-09T04:53:39.987Z,0.74
2019-01-09T04:56:09.723Z,0.71
2019-01-09T04:58:39.538Z,0.71
2019-01-09T05:01:09.041Z,0.71
2019-01-09T05:03:57.648Z,0.70
2019-01-09T05:06:38.756Z,0.74
2019-01-09T05:09:08.621Z,0.75
2019-01-09T05:11:38.081Z,0.75
2019-01-09T05:14:07.567Z,0.77
2019-01-09T05:16:37.684Z,0.76
2019-01-09T05:19:07.166Z,0.76
2019-01-09T05:21:36.654Z,0.65
2019-01-09T05:24:06.391Z,0.73
2019-01-09T05:26:35.949Z,0.72
2019-01-09T05:29:05.593Z,0.71
2019-01-09T05:31:35.506Z,0.71
2019-01-09T05:34:24.187Z,0.71
2019-01-09T05:36:54.034Z,0.71
2019-01-09T05:39:42.942Z,0.69
2019-01-09T05:42:23.610Z,0.69
2019-01-09T05:44:57.698Z,0.69
2019-01-09T05:47:26.973Z,0.69
2019-01-09T05:49:56.608Z,0.71
2019-01-09T05:52:26.185Z,0.71
2019-01-09T05:54:55.962Z,0.71
2019-01-09T05:57:25.429Z,0.72
2019-01-09T06:00:13.990Z,0.73
2019-01-09T06:02:43.560Z,0.73
2019-01-09T06:05:32.043Z,0.71
2019-01-09T06:08:01.632Z,0.71
2019-01-09T06:10:31.262Z,0.67
2019-01-09T06:13:00.769Z,0.67
2019-01-09T06:15:49.500Z,0.64
2019-01-09T06:18:18.984Z,0.64
2019-01-09T06:21:07.454Z,0.54
2019-01-09T06:23:37.060Z,0.54
2019-01-09T06:26:06.618Z,0.54
2019-01-09T06:28:36.123Z,0.51
2019-01-09T06:31:05.835Z,0.47
2019-01-09T06:33:35.635Z,0.46
2019-01-09T06:36:05.122Z,0.46
2019-01-09T06:38:46.607Z,0.49
2019-01-09T06:44:13.499Z,0.45
2019-01-09T06:46:43.162Z,0.42
2019-01-09T06:49:12.841Z,0.44
2019-01-09T06:51:42.417Z,0.41
2019-01-09T06:54:30.804Z,0.48
2019-01-09T06:57:00.707Z,0.47
2019-01-09T07:02:55.089Z,0.54
2019-01-09T07:05:24.745Z,0.52
2019-01-09T07:07:54.413Z,0.52
2019-01-09T07:10:42.902Z,0.47
2019-01-09T07:13:12.519Z,0.47
2019-01-09T07:15:42.018Z,0.51
2019-01-09T07:18:12.084Z,0.55
2019-01-09T07:20:41.680Z,0.46
2019-01-09T07:23:30.207Z,0.46
2019-01-09T07:25:59.747Z,0.46
2019-01-09T07:31:36.870Z,0.50
2019-01-09T07:34:06.476Z,0.50
2019-01-09T07:36:35.964Z,0.51
2019-01-09T07:39:07.606Z,0.51
2019-01-09T07:41:56.766Z,0.41
2019-01-09T07:44:26.372Z,0.41
2019-01-09T07:46:55.901Z,0.45
2019-01-09T07:49:25.400Z,0.43
2019-01-09T07:51:55.177Z,0.41
2019-01-09T07:57:25.472Z,0.45
2019-01-09T07:59:55.151Z,0.43
2019-01-09T08:02:24.798Z,0.43
2019-01-09T08:04:54.319Z,0.39
2019-01-09T08:07:23.803Z,0.40
2019-01-09T08:09:53.208Z,0.39
2019-01-09T08:12:41.750Z,0.45
2019-01-09T08:15:23.261Z,0.48
2019-01-09T08:17:53.324Z,0.48
2019-01-09T08:20:23.233Z,0.40
2019-01-09T08:22:52.724Z,0.40
2019-01-09T08:25:22.383Z,0.39
2019-01-09T08:27:51.994Z,0.36
2019-01-09T08:30:21.502Z,0.40
2019-01-09T08:32:51.024Z,0.41
2019-01-09T08:35:21.801Z,0.43
2019-01-09T08:37:51.351Z,0.42
2019-01-09T08:40:20.806Z,0.43
2019-01-09T08:42:50.364Z,0.44
2019-01-09T08:45:19.983Z,0.51
2019-01-09T08:48:03.687Z,0.51
2019-01-09T08:50:22.617Z,0.55
2019-01-09T08:52:52.189Z,0.56
2019-01-09T08:55:21.868Z,0.56
2019-01-09T08:57:51.352Z,0.51
2019-01-09T09:00:21.065Z,0.52
2019-01-09T09:02:50.697Z,0.52
2019-01-09T09:05:20.508Z,0.51
2019-01-09T09:08:14.152Z,0.51
2019-01-09T09:10:43.958Z,0.60
2019-01-09T09:13:26.378Z,0.60
2019-01-09T09:15:58.994Z,0.65
2019-01-09T09:18:29.450Z,0.60
2019-01-09T09:20:59.210Z,0.60
2019-01-09T09:26:17.504Z,0.68
2019-01-09T09:28:47.063Z,0.75
2019-01-09T09:31:17.552Z,0.73
2019-01-09T09:33:47.397Z,0.68
2019-01-09T09:36:16.960Z,0.69
2019-01-09T09:41:35.107Z,0.77
2019-01-09T09:44:04.708Z,0.74
2019-01-09T09:46:53.198Z,0.84
2019-01-09T09:49:23.125Z,0.84
2019-01-09T09:51:52.558Z,0.88
2019-01-09T09:54:23.382Z,0.85
2019-01-09T09:56:52.909Z,0.77
2019-01-09T09:59:22.390Z,0.82
2019-01-09T10:01:51.831Z,0.81
2019-01-09T10:04:40.742Z,0.85
2019-01-09T10:07:10.502Z,0.88
2019-01-09T10:09:39.924Z,0.82
2019-01-09T10:12:09.469Z,0.88
2019-01-09T10:14:38.970Z,0.95
2019-01-09T10:20:17.570Z,0.98
2019-01-09T10:23:07.405Z,0.98
2019-01-09T10:25:37.028Z,0.93
2019-01-09T10:28:06.462Z,0.84
2019-01-09T10:30:35.886Z,0.92
2019-01-09T10:33:05.458Z,0.92
2019-01-09T10:35:34.881Z,0.95
2019-01-09T10:38:04.419Z,0.91
2019-01-09T10:40:36.198Z,0.95
2019-01-09T10:43:24.369Z,0.98
2019-01-09T10:45:53.773Z,0.98
2019-01-09T10:48:28.947Z,1.04
2019-01-09T10:51:09.626Z,1.03
2019-01-09T10:53:50.486Z,1.10
2019-01-09T10:56:21.754Z,1.10
2019-01-09T10:58:51.190Z,1.12
2019-01-09T11:01:20.709Z,1.15
2019-01-09T11:04:09.134Z,1.15
2019-01-09T11:06:38.717Z,1.14
2019-01-09T11:09:27.507Z,1.12
2019-01-09T11:11:57.041Z,1.12
2019-01-09T11:14:26.729Z,1.20
2019-01-09T11:16:56.348Z,1.20
2019-01-09T11:19:25.844Z,1.15
2019-01-09T11:21:55.471Z,1.18
2019-01-09T11:24:25.143Z,1.14
2019-01-09T11:30:02.267Z,1.22
2019-01-09T11:32:31.700Z,1.22
2019-01-09T11:35:21.043Z,1.23
2019-01-09T11:37:50.480Z,1.23
2019-01-09T11:40:20.535Z,1.32
2019-01-09T11:42:50.096Z,1.32
2019-01-09T11:45:19.781Z,1.25
2019-01-09T11:48:28.566Z,1.25
2019-01-09T11:51:03.681Z,1.22
2019-01-09T11:53:52.117Z,1.26
2019-01-09T11:56:21.650Z,1.23
2019-01-09T11:58:51.437Z,1.17
2019-01-09T12:01:20.967Z,1.17
2019-01-09T12:03:50.446Z,1.14
2019-01-09T12:06:20.071Z,1.18
2019-01-09T12:08:49.573Z,1.07
2019-01-09T12:11:38.087Z,1.18
2019-01-09T12:14:27.018Z,1.25
2019-01-09T12:16:56.869Z,1.25
2019-01-09T12:22:14.846Z,1.26
2019-01-09T12:24:44.341Z,1.20
2019-01-09T12:27:32.773Z,1.20
2019-01-09T12:30:02.284Z,1.20
2019-01-09T12:32:31.734Z,1.27
2019-01-09T12:35:01.279Z,1.27
2019-01-09T12:37:30.773Z,1.23
2019-01-09T12:40:00.534Z,1.22
2019-01-09T12:42:30.164Z,1.18
2019-01-09T12:45:18.771Z,1.25
2019-01-09T12:47:48.241Z,1.24
2019-01-09T12:50:39.307Z,1.24
2019-01-09T12:53:08.854Z,1.25
2019-01-09T12:55:38.310Z,1.37
2019-01-09T12:58:07.696Z,1.37
2019-01-09T13:00:46.062Z,1.39
2019-01-09T13:03:34.566Z,1.37
2019-01-09T13:06:15.229Z,1.35
2019-01-09T13:08:44.955Z,1.34
2019-01-09T13:11:14.396Z,1.34
2019-01-09T13:13:45.803Z,1.37
2019-01-09T13:16:15.232Z,1.37
2019-01-09T13:18:45.051Z,1.32
2019-01-09T13:21:14.454Z,1.32
2019-01-09T13:23:44.123Z,1.38
2019-01-09T13:26:32.504Z,1.39
2019-01-09T13:29:13.485Z,1.37
2019-01-09T13:31:43.158Z,1.30
2019-01-09T13:34:31.629Z,1.32
2019-01-09T13:39:39.124Z,1.27
2019-01-09T13:42:08.685Z,1.35
2019-01-09T13:44:38.110Z,1.36
2019-01-09T13:47:26.988Z,1.40
2019-01-09T13:50:07.994Z,1.32
2019-01-09T13:52:49.338Z,1.34
2019-01-09T13:55:19.138Z,1.34
2019-01-09T13:58:02.508Z,1.34
2019-01-09T14:00:23.772Z,1.26
2019-01-09T14:05:46.958Z,1.31
2019-01-09T14:11:10.354Z,1.35
2019-01-09T14:13:39.844Z,1.35
2019-01-09T14:16:15.351Z,1.26
2019-01-09T14:19:04.535Z,1.27
2019-01-09T14:21:33.985Z,1.27
2019-01-09T14:24:03.457Z,1.20
2019-01-09T14:26:32.920Z,1.20
2019-01-09T14:29:02.667Z,1.12
2019-01-09T14:31:32.055Z,1.12
2019-01-09T14:34:01.541Z,1.18
2019-01-09T14:36:30.988Z,1.12
2019-01-09T14:39:04.640Z,1.13
2019-01-09T14:41:34.062Z,1.13
2019-01-09T14:44:03.554Z,1.15
2019-01-09T14:46:32.963Z,1.12
2019-01-09T14:49:02.467Z,1.15
2019-01-09T14:51:32.056Z,1.12
2019-01-09T14:54:21.356Z,1.10
2019-01-09T14:57:09.762Z,1.07
2019-01-09T14:59:39.243Z,1.07
2019-01-09T15:02:08.707Z,1.09
2019-01-09T15:04:38.179Z,1.11
2019-01-09T15:07:27.105Z,1.06
2019-01-09T15:10:07.805Z,1.04
2019-01-09T15:12:37.397Z,1.04
2019-01-09T15:15:26.313Z,1.03
2019-01-09T15:17:57.375Z,1.03
2019-01-09T15:20:27.015Z,1.13
2019-01-09T15:23:15.451Z,1.13
2019-01-09T15:25:45.192Z,1.14
2019-01-09T15:28:17.317Z,1.12
2019-01-09T15:30:46.931Z,1.15
2019-01-09T15:36:16.645Z,1.13
2019-01-09T15:39:13.268Z,1.11
2019-01-09T15:41:43.006Z,1.11
2019-01-09T15:44:12.457Z,1.11
2019-01-09T15:46:43.972Z,1.03
2019-01-09T15:51:49.371Z,1.10
2019-01-09T15:54:18.995Z,1.10
2019-01-09T15:56:48.449Z,1.06
2019-01-09T15:59:17.914Z,1.03
2019-01-09T16:01:47.649Z,1.00
2019-01-09T16:04:19.381Z,0.95
2019-01-09T16:07:08.417Z,0.96
2019-01-09T16:09:57.038Z,0.96
2019-01-09T16:12:26.828Z,0.98
2019-01-09T16:15:15.922Z,0.92
2019-01-09T16:18:24.780Z,0.92
2019-01-09T16:21:13.584Z,0.97
2019-01-09T16:26:17.922Z,0.91
2019-01-09T16:29:06.488Z,0.91
2019-01-09T16:31:38.481Z,0.91
2019-01-09T16:34:22.355Z,0.97
2019-01-09T16:37:02.912Z,0.91
2019-01-09T16:39:32.896Z,0.91
2019-01-09T16:42:02.701Z,0.85
2019-01-09T16:44:32.499Z,0.81
2019-01-09T16:47:02.259Z,0.82
2019-01-09T16:49:31.822Z,0.80
2019-01-09T16:52:01.371Z,0.81
2019-01-09T16:54:30.990Z,0.72
2019-01-09T16:57:19.709Z,0.81
2019-01-09T17:00:00.515Z,0.81
2019-01-09T17:02:35.005Z,0.79
2019-01-09T17:05:25.323Z,0.77
2019-01-09T17:10:57.054Z,0.75
2019-01-09T17:13:26.666Z,0.73
2019-01-09T17:15:56.187Z,0.74
2019-01-09T17:18:26.071Z,0.70
2019-01-09T17:20:55.549Z,0.70
2019-01-09T17:23:25.400Z,0.69
2019-01-09T17:25:55.523Z,0.58
2019-01-09T17:28:25.448Z,0.63
2019-01-09T17:30:55.208Z,0.65
2019-01-09T17:33:29.823Z,0.62
2019-01-09T17:35:59.436Z,0.57
2019-01-09T17:38:28.914Z,0.57
2019-01-09T17:40:58.417Z,0.57
2019-01-09T17:43:27.888Z,0.57
2019-01-09T17:45:57.371Z,0.59
2019-01-09T17:48:28.760Z,0.65
2019-01-09T17:50:58.791Z,0.60
2019-01-09T17:53:28.410Z,0.58
2019-01-09T17:55:58.075Z,0.56
2019-01-09T17:58:27.885Z,0.53
2019-01-09T18:00:57.457Z,0.53
2019-01-09T18:03:27.036Z,0.50
2019-01-09T18:05:56.738Z,0.50
2019-01-09T18:08:26.335Z,0.52
2019-01-09T18:10:56.395Z,0.46
2019-01-09T18:13:26.226Z,0.46
2019-01-09T18:15:55.989Z,0.46
2019-01-09T18:18:25.656Z,0.46
2019-01-09T18:20:58.546Z,0.52
2019-01-09T18:23:29.068Z,0.55
2019-01-09T18:26:02.794Z,0.50
2019-01-09T18:28:32.427Z,0.46
2019-01-09T18:31:39.857Z,0.37
2019-01-09T18:34:15.574Z,0.36
2019-01-09T18:37:26.761Z,0.35
2019-01-09T18:40:34.270Z,0.40
2019-01-09T18:43:25.532Z,0.42
2019-01-09T18:46:33.151Z,0.40
2019-01-09T18:49:14.391Z,0.52
2019-01-09T18:51:56.311Z,0.54
2019-01-09T18:54:25.854Z,0.54
2019-01-09T18:56:57.261Z,0.58
2019-01-09T18:59:27.037Z,0.60
2019-01-09T19:02:15.600Z,0.58
2019-01-09T19:04:45.169Z,0.55
2019-01-09T19:07:18.576Z,0.47
2019-01-09T19:09:48.179Z,0.49
2019-01-09T19:12:24.875Z,0.49
2019-01-09T19:14:54.358Z,0.50
2019-01-09T19:17:24.172Z,0.54
2019-01-09T19:19:53.852Z,0.57
2019-01-09T19:22:25.163Z,0.58
2019-01-09T19:24:55.114Z,0.58
2019-01-09T19:30:14.386Z,0.55
2019-01-09T19:33:03.098Z,0.44
2019-01-09T19:35:32.763Z,0.44
2019-01-09T19:38:02.310Z,0.37
2019-01-09T19:40:31.754Z,0.31
2019-01-09T19:43:01.206Z,0.28
2019-01-09T19:45:49.868Z,0.31
2019-01-09T19:48:20.374Z,0.31
2019-01-09T19:51:17.380Z,0.21
2019-01-09T19:53:42.308Z,0.21
2019-01-09T19:56:12.649Z,0.22
2019-01-09T19:59:01.291Z,0.19
2019-01-09T20:07:07.327Z,0.26
2019-01-09T20:09:49.059Z,0.19
2019-01-09T20:12:18.886Z,0.14
2019-01-09T20:15:07.910Z,0.09
2019-01-09T20:17:51.912Z,0.05
2019-01-09T20:26:08.400Z,-0.07
2019-01-09T20:28:38.160Z,-0.05
2019-01-09T20:31:27.463Z,-0.15
2019-01-09T20:34:19.256Z,-0.12
2019-01-09T20:36:49.879Z,-0.18
2019-01-09T20:39:22.893Z,-0.18
2019-01-09T20:42:02.469Z,-0.25
2019-01-09T20:44:32.050Z,-0.31
2019-01-09T20:47:07.832Z,-0.38
2019-01-09T20:49:45.179Z,-0.38
2019-01-09T20:52:20.987Z,-0.38
2019-01-09T20:54:53.280Z,-0.39
2019-01-09T20:57:25.817Z,-0.41
2019-01-09T21:00:14.745Z,-0.46
2019-01-09T21:03:03.433Z,-0.53
2019-01-09T21:05:53.836Z,-0.58
2019-01-09T21:11:58.353Z,-0.57
2019-01-09T21:14:51.023Z,-0.59
2019-01-09T21:17:56.951Z,-0.63
2019-01-09T21:20:55.140Z,-0.66
2019-01-09T21:23:35.835Z,-0.69
2019-01-09T21:26:33.242Z,-0.76
2019-01-09T21:29:10.384Z,-0.83
2019-01-09T21:31:54.849Z,-0.87
2019-01-09T21:34:26.410Z,-0.92
2019-01-09T21:36:56.163Z,-1.00
2019-01-09T21:40:00.523Z,-1.04
2019-01-09T21:42:59.456Z,-1.09
2019-01-09T21:51:35.458Z,-1.22
2019-01-09T21:55:01.853Z,-1.27
2019-01-09T22:09:33.203Z,-1.35
2019-01-09T22:12:11.469Z,-1.45
2019-01-09T22:14:50.372Z,-1.56
2019-01-09T22:17:58.239Z,-1.63
2019-01-09T22:20:33.103Z,-1.70
2019-01-09T22:26:18.031Z,-1.86
2019-01-09T22:28:48.826Z,-1.93
2019-01-09T22:31:18.307Z,-1.98
2019-01-09T22:33:47.784Z,-2.02
2019-01-09T22:36:17.226Z,-2.06
2019-01-09T22:38:46.654Z,-2.11
2019-01-09T22:41:16.257Z,-2.13
2019-01-09T22:43:45.721Z,-2.18
2019-01-09T22:46:15.162Z,-2.20
2019-01-09T22:48:44.703Z,-2.23
2019-01-09T22:51:14.464Z,-2.28
2019-01-09T22:53:44.068Z,-2.28
2019-01-09T22:56:15.211Z,-2.31
2019-01-09T22:58:44.636Z,-2.39
2019-01-09T23:01:41.981Z,-2.39
2019-01-09T23:04:11.972Z,-2.42
2019-01-09T23:06:43.381Z,-2.47
2019-01-09T23:09:12.917Z,-2.49
2019-01-09T23:14:32.620Z,-2.53
2019-01-09T23:23:02.764Z,-2.57
2019-01-09T23:25:32.319Z,-2.58
2019-01-09T23:28:20.734Z,-2.60
2019-01-09T23:30:50.287Z,-2.62
2019-01-09T23:33:19.911Z,-2.60
2019-01-09T23:35:49.416Z,-2.61
2019-01-09T23:41:09.148Z,-2.64
2019-01-09T23:43:38.779Z,-2.67
2019-01-09T23:48:56.667Z,-2.68
2019-01-09T23:51:26.213Z,-2.70
2019-01-09T23:54:14.906Z,-2.72
2019-01-09T23:56:44.512Z,-2.74
2019-01-09T23:59:14.259Z,-2.77
